createdAt,value
2017-01-19T00:00:34.822Z,1037.8
2017-01-19T00:01:43.791Z,1037.78
2017-01-19T00:02:52.771Z,1037.79
2017-01-19T00:04:01.746Z,1037.8
2017-01-19T00:05:11.103Z,1037.83
2017-01-19T00:06:20.059Z,1037.82
2017-01-19T00:07:29.033Z,1037.79
2017-01-19T00:08:38.007Z,1037.79
2017-01-19T00:09:46.987Z,1037.76
2017-01-19T00:10:55.971Z,1037.71
2017-01-19T00:12:04.946Z,1037.68
2017-01-19T00:13:13.913Z,1037.67
2017-01-19T00:14:22.883Z,1037.66
2017-01-19T00:15:31.867Z,1037.64
2017-01-19T00:16:40.845Z,1037.62
2017-01-19T00:17:49.813Z,1037.61
2017-01-19T00:18:58.816Z,1037.64
2017-01-19T00:20:07.788Z,1037.64
2017-01-19T00:21:16.757Z,1037.59
2017-01-19T00:22:25.734Z,1037.57
2017-01-19T00:23:34.752Z,1037.58
2017-01-19T00:24:43.727Z,1037.57
2017-01-19T00:25:52.692Z,1037.6
2017-01-19T00:27:01.675Z,1037.59
2017-01-19T00:28:10.645Z,1037.56
2017-01-19T00:29:19.623Z,1037.52
2017-01-19T00:30:28.588Z,1037.43
2017-01-19T00:31:37.560Z,1037.45
2017-01-19T00:32:46.528Z,1037.52
2017-01-19T00:33:55.529Z,1037.57
2017-01-19T00:35:04.497Z,1037.57
2017-01-19T00:36:13.478Z,1037.56
2017-01-19T00:37:22.463Z,1037.55
2017-01-19T00:38:31.430Z,1037.53
2017-01-19T00:39:40.414Z,1037.57
2017-01-19T00:40:49.377Z,1037.57
2017-01-19T00:41:58.340Z,1037.55
2017-01-19T00:43:07.317Z,1037.63
2017-01-19T00:44:16.301Z,1037.65
2017-01-19T00:45:25.277Z,1037.66
2017-01-19T00:46:34.242Z,1037.67
2017-01-19T00:47:43.211Z,1037.66
2017-01-19T00:48:52.166Z,1037.59
2017-01-19T00:50:01.180Z,1037.58
2017-01-19T00:51:10.163Z,1037.62
2017-01-19T00:52:19.138Z,1037.66
2017-01-19T00:53:28.106Z,1037.68
2017-01-19T00:54:37.076Z,1037.68
2017-01-19T00:55:46.045Z,1037.66
2017-01-19T00:56:55.015Z,1037.68
2017-01-19T00:58:04.000Z,1037.61
2017-01-19T00:59:12.976Z,1037.65
2017-01-19T01:00:21.962Z,1037.6
2017-01-19T01:01:30.927Z,1037.56
2017-01-19T01:02:39.934Z,1037.56
2017-01-19T01:03:48.900Z,1037.56
2017-01-19T01:04:57.882Z,1037.55
2017-01-19T01:06:06.839Z,1037.59
2017-01-19T01:07:15.837Z,1037.57
2017-01-19T01:08:24.809Z,1037.57
2017-01-19T01:09:33.788Z,1037.59
2017-01-19T01:10:42.761Z,1037.57
2017-01-19T01:11:51.739Z,1037.6
2017-01-19T01:13:00.719Z,1037.57
2017-01-19T01:14:09.682Z,1037.56
2017-01-19T01:15:18.651Z,1037.56
2017-01-19T01:16:27.622Z,1037.57
2017-01-19T01:17:36.595Z,1037.61
2017-01-19T01:18:45.579Z,1037.62
2017-01-19T01:19:54.548Z,1037.62
2017-01-19T01:21:03.523Z,1037.62
2017-01-19T01:22:12.502Z,1037.62
2017-01-19T01:23:21.472Z,1037.62
2017-01-19T01:24:30.443Z,1037.63
2017-01-19T01:25:39.417Z,1037.62
2017-01-19T01:26:48.380Z,1037.63
2017-01-19T01:27:57.346Z,1037.58
2017-01-19T01:29:06.326Z,1037.6
2017-01-19T01:30:15.295Z,1037.64
2017-01-19T01:31:24.264Z,1037.61
2017-01-19T01:32:33.232Z,1037.61
2017-01-19T01:33:42.198Z,1037.61
2017-01-19T01:34:51.181Z,1037.56
2017-01-19T01:36:00.147Z,1037.53
2017-01-19T01:37:09.121Z,1037.52
2017-01-19T01:38:18.254Z,1037.5
2017-01-19T01:39:27.232Z,1037.56
2017-01-19T01:40:36.231Z,1037.57
2017-01-19T01:41:45.200Z,1037.51
2017-01-19T01:42:54.176Z,1037.51
2017-01-19T01:44:03.137Z,1037.53
2017-01-19T01:45:12.116Z,1037.53
2017-01-19T01:46:21.085Z,1037.55
2017-01-19T01:47:30.061Z,1037.54
2017-01-19T01:48:39.024Z,1037.53
2017-01-19T01:49:47.998Z,1037.46
2017-01-19T01:50:56.974Z,1037.45
2017-01-19T01:52:05.955Z,1037.43
2017-01-19T01:53:14.922Z,1037.48
2017-01-19T01:54:23.895Z,1037.46
2017-01-19T01:55:32.855Z,1037.45
2017-01-19T01:56:41.817Z,1037.47
2017-01-19T01:57:50.800Z,1037.51
2017-01-19T01:58:59.760Z,1037.46
2017-01-19T02:00:08.739Z,1037.48
2017-01-19T02:01:17.693Z,1037.46
2017-01-19T02:02:26.662Z,1037.45
2017-01-19T02:03:35.660Z,1037.43
2017-01-19T02:04:44.630Z,1037.4
2017-01-19T02:05:53.654Z,1037.43
2017-01-19T02:07:02.640Z,1037.43
2017-01-19T02:08:11.616Z,1037.4
2017-01-19T02:09:20.575Z,1037.41
2017-01-19T02:10:29.553Z,1037.4
2017-01-19T02:11:38.532Z,1037.43
2017-01-19T02:12:47.509Z,1037.39
2017-01-19T02:13:56.476Z,1037.35
2017-01-19T02:15:05.455Z,1037.34
2017-01-19T02:16:14.420Z,1037.3
2017-01-19T02:17:23.396Z,1037.31
2017-01-19T02:18:32.384Z,1037.35
2017-01-19T02:19:41.351Z,1037.33
2017-01-19T02:20:50.310Z,1037.33
2017-01-19T02:21:59.285Z,1037.33
2017-01-19T02:23:08.250Z,1037.36
2017-01-19T02:24:17.233Z,1037.36
2017-01-19T02:25:26.206Z,1037.35
2017-01-19T02:26:35.172Z,1037.32
2017-01-19T02:27:44.136Z,1037.33
2017-01-19T02:28:53.107Z,1037.36
2017-01-19T02:30:02.072Z,1037.36
2017-01-19T02:31:11.041Z,1037.4
2017-01-19T02:32:20.028Z,1037.42
2017-01-19T02:33:28.998Z,1037.43
2017-01-19T02:34:38.405Z,1037.4
2017-01-19T02:35:47.385Z,1037.46
2017-01-19T02:36:56.344Z,1037.48
2017-01-19T02:38:05.316Z,1037.48
2017-01-19T02:39:14.278Z,1037.53
2017-01-19T02:40:23.257Z,1037.54
2017-01-19T02:41:32.249Z,1037.53
2017-01-19T02:42:41.236Z,1037.51
2017-01-19T02:43:50.203Z,1037.46
2017-01-19T02:44:59.177Z,1037.44
2017-01-19T02:46:08.143Z,1037.44
2017-01-19T02:47:17.115Z,1037.42
2017-01-19T02:48:26.081Z,1037.46
2017-01-19T02:49:35.053Z,1037.45
2017-01-19T02:50:44.041Z,1037.4
2017-01-19T02:51:53.000Z,1037.43
2017-01-19T02:53:01.988Z,1037.34
2017-01-19T02:54:10.950Z,1037.36
2017-01-19T02:55:19.929Z,1037.35
2017-01-19T02:56:28.900Z,1037.36
2017-01-19T02:57:37.875Z,1037.38
2017-01-19T02:58:46.844Z,1037.35
2017-01-19T02:59:55.859Z,1037.37
2017-01-19T03:01:04.817Z,1037.37
2017-01-19T03:02:13.783Z,1037.37
2017-01-19T03:03:22.775Z,1037.35
2017-01-19T03:04:31.740Z,1037.37
2017-01-19T03:05:40.708Z,1037.39
2017-01-19T03:06:49.691Z,1037.41
2017-01-19T03:07:58.662Z,1037.41
2017-01-19T03:09:07.686Z,1037.39
2017-01-19T03:10:16.661Z,1037.42
2017-01-19T03:11:25.630Z,1037.43
2017-01-19T03:12:34.606Z,1037.46
2017-01-19T03:13:43.573Z,1037.49
2017-01-19T03:14:52.536Z,1037.52
2017-01-19T03:16:01.495Z,1037.49
2017-01-19T03:17:10.496Z,1037.5
2017-01-19T03:18:19.460Z,1037.48
2017-01-19T03:19:28.437Z,1037.55
2017-01-19T03:20:37.405Z,1037.54
2017-01-19T03:21:46.385Z,1037.52
2017-01-19T03:22:55.344Z,1037.55
2017-01-19T03:24:04.318Z,1037.52
2017-01-19T03:25:13.291Z,1037.49
2017-01-19T03:26:22.260Z,1037.5
2017-01-19T03:27:31.215Z,1037.51
2017-01-19T03:28:40.189Z,1037.5
2017-01-19T03:29:49.155Z,1037.47
2017-01-19T03:30:58.125Z,1037.43
2017-01-19T03:32:07.100Z,1037.37
2017-01-19T03:33:16.067Z,1037.41
2017-01-19T03:34:25.020Z,1037.4
2017-01-19T03:35:34.049Z,1037.38
2017-01-19T03:36:43.011Z,1037.33
2017-01-19T03:37:52.043Z,1037.29
2017-01-19T03:39:01.011Z,1037.31
2017-01-19T03:40:09.986Z,1037.21
2017-01-19T03:41:18.955Z,1037.22
2017-01-19T03:42:27.937Z,1037.21
2017-01-19T03:43:36.895Z,1037.17
2017-01-19T03:44:45.869Z,1037.16
2017-01-19T03:45:54.848Z,1037.1
2017-01-19T03:47:03.810Z,1037.11
2017-01-19T03:48:12.789Z,1037.12
2017-01-19T03:49:21.804Z,1037.13
2017-01-19T03:50:30.775Z,1037.17
2017-01-19T03:51:39.734Z,1037.15
2017-01-19T03:52:48.693Z,1037.13
2017-01-19T03:53:57.670Z,1037.15
2017-01-19T03:55:06.648Z,1037.13
2017-01-19T03:56:15.609Z,1037.11
2017-01-19T03:57:24.587Z,1037.1
2017-01-19T03:58:33.560Z,1037.14
2017-01-19T03:59:42.525Z,1037.14
2017-01-19T04:00:51.507Z,1037.21
2017-01-19T04:02:00.469Z,1037.21
2017-01-19T04:03:09.436Z,1037.25
2017-01-19T04:04:18.408Z,1037.23
2017-01-19T04:05:27.375Z,1037.24
2017-01-19T04:06:36.346Z,1037.2
2017-01-19T04:07:45.308Z,1037.21
2017-01-19T04:08:54.285Z,1037.23
2017-01-19T04:10:03.251Z,1037.2
2017-01-19T04:11:12.226Z,1037.24
2017-01-19T04:12:21.910Z,1037.2
2017-01-19T04:13:36.604Z,1037.18
2017-01-19T04:14:45.569Z,1037.12
2017-01-19T04:15:54.537Z,1037.05
2017-01-19T04:17:03.506Z,1037.09
2017-01-19T04:18:12.472Z,1037.1
2017-01-19T04:19:21.445Z,1037.14
2017-01-19T04:20:30.415Z,1037.15
2017-01-19T04:21:39.387Z,1037.14
2017-01-19T04:22:48.363Z,1037.14
2017-01-19T04:23:57.332Z,1037.15
2017-01-19T04:25:06.293Z,1037.18
2017-01-19T04:26:15.260Z,1037.17
2017-01-19T04:27:24.235Z,1037.16
2017-01-19T04:28:33.209Z,1037.17
2017-01-19T04:29:42.191Z,1037.16
2017-01-19T04:30:51.193Z,1037.17
2017-01-19T04:32:00.150Z,1037.18
2017-01-19T04:33:09.128Z,1037.12
2017-01-19T04:34:18.104Z,1037.13
2017-01-19T04:35:27.065Z,1037.13
2017-01-19T04:36:36.040Z,1037.12
2017-01-19T04:37:45.009Z,1037.08
2017-01-19T04:38:53.966Z,1037.07
2017-01-19T04:40:02.948Z,1037.07
2017-01-19T04:41:11.928Z,1037.07
2017-01-19T04:42:20.920Z,1037.02
2017-01-19T04:43:29.887Z,1036.98
2017-01-19T04:44:38.845Z,1036.96
2017-01-19T04:45:47.819Z,1036.95
2017-01-19T04:46:56.783Z,1036.93
2017-01-19T04:48:05.753Z,1036.88
2017-01-19T04:49:14.716Z,1036.89
2017-01-19T04:50:23.698Z,1036.91
2017-01-19T04:51:32.659Z,1036.9
2017-01-19T04:52:41.624Z,1036.86
2017-01-19T04:53:50.600Z,1036.88
2017-01-19T04:54:59.575Z,1036.85
2017-01-19T04:56:08.553Z,1036.86
2017-01-19T04:57:17.553Z,1036.88
2017-01-19T04:58:26.514Z,1036.92
2017-01-19T04:59:35.504Z,1036.94
2017-01-19T05:00:44.492Z,1036.95
2017-01-19T05:01:53.466Z,1036.94
2017-01-19T05:03:02.436Z,1036.86
2017-01-19T05:04:11.406Z,1036.83
2017-01-19T05:05:20.387Z,1036.8
2017-01-19T05:06:29.352Z,1036.79
2017-01-19T05:07:38.325Z,1036.78
2017-01-19T05:08:47.329Z,1036.76
2017-01-19T05:09:56.289Z,1036.73
2017-01-19T05:11:05.251Z,1036.69
2017-01-19T05:12:14.224Z,1036.72
2017-01-19T05:13:23.194Z,1036.72
2017-01-19T05:14:32.193Z,1036.67
2017-01-19T05:15:42.625Z,1036.64
2017-01-19T05:16:51.607Z,1036.61
2017-01-19T05:18:00.572Z,1036.67
2017-01-19T05:19:09.547Z,1036.67
2017-01-19T05:20:18.507Z,1036.68
2017-01-19T05:21:27.482Z,1036.66
2017-01-19T05:22:36.483Z,1036.62
2017-01-19T05:23:45.456Z,1036.67
2017-01-19T05:24:54.432Z,1036.68
2017-01-19T05:26:03.398Z,1036.69
2017-01-19T05:27:12.367Z,1036.72
2017-01-19T05:28:21.331Z,1036.71
2017-01-19T05:29:30.333Z,1036.68
2017-01-19T05:30:39.296Z,1036.68
2017-01-19T05:31:48.264Z,1036.63
2017-01-19T05:32:57.235Z,1036.59
2017-01-19T05:34:06.194Z,1036.63
2017-01-19T05:35:15.175Z,1036.59
2017-01-19T05:36:24.143Z,1036.54
2017-01-19T05:37:33.112Z,1036.53
2017-01-19T05:38:42.120Z,1036.54
2017-01-19T05:39:51.086Z,1036.57
2017-01-19T05:41:00.058Z,1036.57
2017-01-19T05:42:09.049Z,1036.61
2017-01-19T05:43:18.032Z,1036.58
2017-01-19T05:44:26.988Z,1036.59
2017-01-19T05:45:35.956Z,1036.57
2017-01-19T05:46:44.944Z,1036.56
2017-01-19T05:47:53.908Z,1036.54
2017-01-19T05:49:02.881Z,1036.53
2017-01-19T05:50:11.843Z,1036.46
2017-01-19T05:51:20.822Z,1036.45
2017-01-19T05:52:29.895Z,1036.46
2017-01-19T05:53:39.012Z,1036.42
2017-01-19T05:54:47.984Z,1036.44
2017-01-19T05:55:56.952Z,1036.47
2017-01-19T05:57:05.929Z,1036.41
2017-01-19T05:58:14.895Z,1036.42
2017-01-19T05:59:23.878Z,1036.45
2017-01-19T06:00:32.841Z,1036.42
2017-01-19T06:01:41.796Z,1036.44
2017-01-19T06:02:50.780Z,1036.44
2017-01-19T06:03:59.744Z,1036.42
2017-01-19T06:05:08.755Z,1036.43
2017-01-19T06:06:17.721Z,1036.45
2017-01-19T06:07:26.700Z,1036.51
2017-01-19T06:08:35.669Z,1036.48
2017-01-19T06:09:44.639Z,1036.55
2017-01-19T06:10:53.610Z,1036.61
2017-01-19T06:12:02.593Z,1036.56
2017-01-19T06:13:11.573Z,1036.59
2017-01-19T06:14:20.538Z,1036.57
2017-01-19T06:15:29.498Z,1036.58
2017-01-19T06:16:38.495Z,1036.56
2017-01-19T06:17:47.454Z,1036.59
2017-01-19T06:18:56.435Z,1036.57
2017-01-19T06:20:05.402Z,1036.57
2017-01-19T06:21:14.366Z,1036.62
2017-01-19T06:22:23.333Z,1036.61
2017-01-19T06:23:32.456Z,1036.61
2017-01-19T06:24:41.438Z,1036.65
2017-01-19T06:25:50.403Z,1036.68
2017-01-19T06:26:59.379Z,1036.61
2017-01-19T06:28:08.350Z,1036.63
2017-01-19T06:29:17.319Z,1036.64
2017-01-19T06:30:26.287Z,1036.67
2017-01-19T06:31:35.254Z,1036.66
2017-01-19T06:32:44.224Z,1036.7
2017-01-19T06:33:53.196Z,1036.69
2017-01-19T06:35:02.174Z,1036.7
2017-01-19T06:36:11.140Z,1036.65
2017-01-19T06:37:20.115Z,1036.65
2017-01-19T06:38:29.080Z,1036.62
2017-01-19T06:39:38.050Z,1036.63
2017-01-19T06:40:47.059Z,1036.65
2017-01-19T06:41:56.033Z,1036.62
2017-01-19T06:43:04.997Z,1036.62
2017-01-19T06:44:13.983Z,1036.62
2017-01-19T06:45:22.946Z,1036.65
2017-01-19T06:46:31.938Z,1036.65
2017-01-19T06:47:40.913Z,1036.69
2017-01-19T06:48:49.895Z,1036.69
2017-01-19T06:49:58.873Z,1036.71
2017-01-19T06:51:07.832Z,1036.65
2017-01-19T06:52:16.804Z,1036.65
2017-01-19T06:53:25.863Z,1036.66
2017-01-19T06:54:34.842Z,1036.65
2017-01-19T06:55:43.820Z,1036.64
2017-01-19T06:56:52.783Z,1036.64
2017-01-19T06:58:01.752Z,1036.65
2017-01-19T06:59:10.719Z,1036.67
2017-01-19T07:00:19.707Z,1036.72
2017-01-19T07:01:28.669Z,1036.72
2017-01-19T07:02:37.659Z,1036.73
2017-01-19T07:03:46.630Z,1036.74
2017-01-19T07:04:55.602Z,1036.8
2017-01-19T07:06:04.571Z,1036.81
2017-01-19T07:07:13.548Z,1036.8
2017-01-19T07:08:22.513Z,1036.86
2017-01-19T07:09:31.494Z,1036.84
2017-01-19T07:10:40.487Z,1036.85
2017-01-19T07:11:49.463Z,1036.88
2017-01-19T07:12:58.445Z,1036.94
2017-01-19T07:14:07.424Z,1036.91
2017-01-19T07:15:16.378Z,1036.94
2017-01-19T07:16:25.349Z,1036.98
2017-01-19T07:17:34.310Z,1036.99
2017-01-19T07:18:43.301Z,1037.02
2017-01-19T07:19:52.285Z,1037.03
2017-01-19T07:21:01.287Z,1037.09
2017-01-19T07:22:10.258Z,1037.12
2017-01-19T07:23:19.237Z,1037.1
2017-01-19T07:24:28.202Z,1037.1
2017-01-19T07:25:37.175Z,1037.12
2017-01-19T07:26:46.166Z,1037.12
2017-01-19T07:27:55.125Z,1037.16
2017-01-19T07:29:04.090Z,1037.14
2017-01-19T07:30:13.069Z,1037.09
2017-01-19T07:31:22.040Z,1037.12
2017-01-19T07:32:31.040Z,1037.06
2017-01-19T07:33:40.005Z,1037.06
2017-01-19T07:34:48.974Z,1037.09
2017-01-19T07:35:57.988Z,1037.04
2017-01-19T07:37:06.963Z,1037.03
2017-01-19T07:38:15.938Z,1036.99
2017-01-19T07:39:24.919Z,1037.02
2017-01-19T07:40:33.888Z,1037.01
2017-01-19T07:41:42.863Z,1036.99
2017-01-19T07:42:51.865Z,1037.02
2017-01-19T07:44:00.840Z,1036.98
2017-01-19T07:45:09.834Z,1037.01
2017-01-19T07:46:18.806Z,1037.04
2017-01-19T07:47:27.788Z,1037.06
2017-01-19T07:48:36.766Z,1037.01
2017-01-19T07:49:45.743Z,1036.94
2017-01-19T07:50:54.713Z,1036.99
2017-01-19T07:52:03.689Z,1037.01
2017-01-19T07:53:12.667Z,1037.02
2017-01-19T07:54:21.640Z,1036.99
2017-01-19T07:55:30.607Z,1036.95
2017-01-19T07:56:39.600Z,1036.96
2017-01-19T07:57:48.576Z,1037.03
2017-01-19T07:58:57.541Z,1037.05
2017-01-19T08:00:06.520Z,1037.08
2017-01-19T08:01:15.497Z,1037.1
2017-01-19T08:02:24.487Z,1037.11
2017-01-19T08:03:33.461Z,1037.12
2017-01-19T08:04:42.434Z,1037.16
2017-01-19T08:05:51.404Z,1037.18
2017-01-19T08:07:00.371Z,1037.18
2017-01-19T08:08:09.347Z,1037.17
2017-01-19T08:09:18.322Z,1037.18
2017-01-19T08:10:27.308Z,1037.19
2017-01-19T08:11:36.267Z,1037.21
2017-01-19T08:12:45.249Z,1037.19
2017-01-19T08:13:54.235Z,1037.17
2017-01-19T08:15:03.211Z,1037.16
2017-01-19T08:16:12.376Z,1037.12
2017-01-19T08:17:21.382Z,1037.13
2017-01-19T08:18:30.341Z,1037.18
2017-01-19T08:19:39.327Z,1037.25
2017-01-19T08:20:48.335Z,1037.28
2017-01-19T08:21:57.323Z,1037.28
2017-01-19T08:23:06.288Z,1037.28
2017-01-19T08:24:15.280Z,1037.27
2017-01-19T08:25:24.238Z,1037.24
2017-01-19T08:26:33.216Z,1037.25
2017-01-19T08:27:42.197Z,1037.26
2017-01-19T08:28:51.169Z,1037.24
2017-01-19T08:30:00.140Z,1037.28
2017-01-19T08:31:09.120Z,1037.28
2017-01-19T08:32:18.088Z,1037.31
2017-01-19T08:33:27.055Z,1037.18
2017-01-19T08:34:36.042Z,1037.18
2017-01-19T08:35:45.010Z,1037.18
2017-01-19T08:36:53.980Z,1037.2
2017-01-19T08:38:02.956Z,1037.19
2017-01-19T08:39:11.924Z,1037.17
2017-01-19T08:40:20.903Z,1037.18
2017-01-19T08:41:29.890Z,1037.2
2017-01-19T08:42:38.883Z,1037.19
2017-01-19T08:43:47.848Z,1037.15
2017-01-19T08:44:56.839Z,1037.17
2017-01-19T08:46:05.815Z,1037.2
2017-01-19T08:47:14.791Z,1037.22
2017-01-19T08:48:23.771Z,1037.21
2017-01-19T08:49:32.771Z,1037.17
2017-01-19T08:50:42.208Z,1037.16
2017-01-19T08:51:51.183Z,1037.19
2017-01-19T08:53:00.158Z,1037.21
2017-01-19T08:54:09.140Z,1037.23
2017-01-19T08:55:18.123Z,1037.21
2017-01-19T08:56:27.103Z,1037.26
2017-01-19T08:57:36.074Z,1037.31
2017-01-19T08:58:45.035Z,1037.25
2017-01-19T08:59:54.012Z,1037.28
2017-01-19T09:01:02.980Z,1037.29
2017-01-19T09:02:11.958Z,1037.35
2017-01-19T09:03:20.931Z,1037.39
2017-01-19T09:04:29.899Z,1037.43
2017-01-19T09:05:38.885Z,1037.42
2017-01-19T09:06:47.859Z,1037.45
2017-01-19T09:07:56.831Z,1037.4
2017-01-19T09:09:05.797Z,1037.38
2017-01-19T09:10:14.797Z,1037.39
2017-01-19T09:11:23.764Z,1037.38
2017-01-19T09:12:32.742Z,1037.41
2017-01-19T09:13:41.716Z,1037.38
2017-01-19T09:14:50.718Z,1037.43
2017-01-19T09:15:59.691Z,1037.43
2017-01-19T09:17:08.680Z,1037.39
2017-01-19T09:18:17.643Z,1037.35
2017-01-19T09:19:26.622Z,1037.36
2017-01-19T09:20:35.592Z,1037.33
2017-01-19T09:21:44.571Z,1037.34
2017-01-19T09:22:53.543Z,1037.27
2017-01-19T09:24:02.534Z,1037.36
2017-01-19T09:25:11.503Z,1037.34
2017-01-19T09:26:20.489Z,1037.34
2017-01-19T09:27:29.462Z,1037.33
2017-01-19T09:28:38.455Z,1037.3
2017-01-19T09:29:47.461Z,1037.3
2017-01-19T09:30:56.430Z,1037.26
2017-01-19T09:32:05.408Z,1037.22
2017-01-19T09:33:14.381Z,1037.23
2017-01-19T09:34:23.354Z,1037.15
2017-01-19T09:35:32.340Z,1037.17
2017-01-19T09:36:41.302Z,1037.16
2017-01-19T09:37:50.276Z,1037.09
2017-01-19T09:38:59.238Z,1037.17
2017-01-19T09:40:08.224Z,1037.13
2017-01-19T09:41:17.201Z,1037.12
2017-01-19T09:42:26.167Z,1037.11
2017-01-19T09:43:35.155Z,1037.1
2017-01-19T09:44:44.114Z,1037.14
2017-01-19T09:45:53.109Z,1037.15
2017-01-19T09:47:02.083Z,1037.2
2017-01-19T09:48:11.054Z,1037.15
2017-01-19T09:49:20.026Z,1037.25
2017-01-19T09:50:29.034Z,1037.2
2017-01-19T09:51:38.001Z,1037.19
2017-01-19T09:52:46.981Z,1037.23
2017-01-19T09:53:55.964Z,1037.16
2017-01-19T09:55:04.951Z,1037.17
2017-01-19T09:56:13.925Z,1037.17
2017-01-19T09:57:22.908Z,1037.11
2017-01-19T09:58:31.878Z,1037.12
2017-01-19T09:59:40.853Z,1037.09
2017-01-19T10:00:49.822Z,1037.12
2017-01-19T10:01:58.796Z,1037.14
2017-01-19T10:03:07.777Z,1037.17
2017-01-19T10:04:16.750Z,1037.2
2017-01-19T10:05:26.023Z,1037.19
2017-01-19T10:06:34.993Z,1037.15
2017-01-19T10:07:43.989Z,1037.12
2017-01-19T10:08:52.959Z,1037.13
2017-01-19T10:10:01.934Z,1037.15
2017-01-19T10:11:10.910Z,1037.2
2017-01-19T10:12:19.882Z,1037.22
2017-01-19T10:13:28.861Z,1037.2
2017-01-19T10:14:37.836Z,1037.23
2017-01-19T10:15:46.817Z,1037.22
2017-01-19T10:16:55.784Z,1037.2
2017-01-19T10:18:04.760Z,1037.16
2017-01-19T10:19:13.743Z,1037.21
2017-01-19T10:20:22.712Z,1037.17
2017-01-19T10:21:31.690Z,1037.2
2017-01-19T10:22:40.670Z,1037.22
2017-01-19T10:23:49.636Z,1037.2
2017-01-19T10:24:58.605Z,1037.19
2017-01-19T10:26:07.586Z,1037.16
2017-01-19T10:27:16.571Z,1037.17
2017-01-19T10:28:25.539Z,1037.19
2017-01-19T10:29:34.509Z,1037.22
2017-01-19T10:30:43.465Z,1037.23
2017-01-19T10:31:52.454Z,1037.17
2017-01-19T10:33:01.437Z,1037.21
2017-01-19T10:34:10.408Z,1037.18
2017-01-19T10:35:19.398Z,1037.23
2017-01-19T10:36:28.378Z,1037.24
2017-01-19T10:37:37.352Z,1037.23
2017-01-19T10:38:46.327Z,1037.22
2017-01-19T10:39:55.299Z,1037.21
2017-01-19T10:41:04.282Z,1037.21
2017-01-19T10:42:13.243Z,1037.24
2017-01-19T10:43:22.225Z,1037.22
2017-01-19T10:44:31.184Z,1037.2
2017-01-19T10:45:40.163Z,1037.23
2017-01-19T10:46:49.134Z,1037.16
2017-01-19T10:47:58.123Z,1037.13
2017-01-19T10:49:07.098Z,1037.07
2017-01-19T10:50:16.075Z,1037.06
2017-01-19T10:51:25.050Z,1037.02
2017-01-19T10:52:34.092Z,1037.07
2017-01-19T10:53:43.137Z,1037.06
2017-01-19T10:54:52.109Z,1037.06
2017-01-19T10:56:01.079Z,1037.11
2017-01-19T10:57:10.060Z,1037.04
2017-01-19T10:58:19.025Z,1037.03
2017-01-19T10:59:28.014Z,1037.06
2017-01-19T11:00:36.990Z,1037.02
2017-01-19T11:01:45.951Z,1037
2017-01-19T11:02:55.329Z,1036.96
2017-01-19T11:04:04.308Z,1036.92
2017-01-19T11:05:13.273Z,1036.99
2017-01-19T11:06:22.251Z,1036.96
2017-01-19T11:07:31.231Z,1036.94
2017-01-19T11:08:40.201Z,1036.93
2017-01-19T11:09:49.167Z,1036.94
2017-01-19T11:10:58.152Z,1036.9
2017-01-19T11:12:07.118Z,1036.93
2017-01-19T11:13:16.096Z,1036.87
2017-01-19T11:14:25.062Z,1036.89
2017-01-19T11:15:34.035Z,1036.9
2017-01-19T11:16:43.022Z,1036.95
2017-01-19T11:17:52.005Z,1036.96
2017-01-19T11:19:00.984Z,1036.96
2017-01-19T11:20:09.950Z,1037.01
2017-01-19T11:21:18.933Z,1037.01
2017-01-19T11:22:27.898Z,1036.98
2017-01-19T11:23:37.016Z,1036.91
2017-01-19T11:24:46.002Z,1036.88
2017-01-19T11:25:54.978Z,1036.88
2017-01-19T11:27:03.960Z,1036.86
2017-01-19T11:28:12.927Z,1036.82
2017-01-19T11:29:21.905Z,1036.82
2017-01-19T11:30:30.868Z,1036.76
2017-01-19T11:31:39.880Z,1036.8
2017-01-19T11:32:48.845Z,1036.8
2017-01-19T11:33:57.820Z,1036.73
2017-01-19T11:35:06.793Z,1036.72
2017-01-19T11:36:15.764Z,1036.72
2017-01-19T11:37:24.732Z,1036.72
2017-01-19T11:38:33.706Z,1036.66
2017-01-19T11:39:42.679Z,1036.65
2017-01-19T11:40:51.655Z,1036.6
2017-01-19T11:42:00.621Z,1036.62
2017-01-19T11:43:09.606Z,1036.63
2017-01-19T11:44:18.580Z,1036.58
2017-01-19T11:45:27.549Z,1036.57
2017-01-19T11:46:36.513Z,1036.51
2017-01-19T11:47:45.486Z,1036.49
2017-01-19T11:48:54.468Z,1036.47
2017-01-19T11:50:03.441Z,1036.48
2017-01-19T11:51:12.425Z,1036.49
2017-01-19T11:52:21.385Z,1036.45
2017-01-19T11:53:30.750Z,1036.41
2017-01-19T11:54:39.746Z,1036.42
2017-01-19T11:55:48.732Z,1036.34
2017-01-19T11:56:57.702Z,1036.35
2017-01-19T11:58:06.680Z,1036.41
2017-01-19T11:59:15.658Z,1036.39
2017-01-19T12:00:24.623Z,1036.39
2017-01-19T12:01:33.602Z,1036.35
2017-01-19T12:02:42.584Z,1036.29
2017-01-19T12:03:51.551Z,1036.29
2017-01-19T12:05:00.552Z,1036.28
2017-01-19T12:06:09.515Z,1036.26
2017-01-19T12:07:18.491Z,1036.28
2017-01-19T12:08:27.472Z,1036.28
2017-01-19T12:09:36.453Z,1036.26
2017-01-19T12:10:45.424Z,1036.28
2017-01-19T12:11:54.401Z,1036.25
2017-01-19T12:13:03.377Z,1036.24
2017-01-19T12:14:12.353Z,1036.19
2017-01-19T12:15:21.330Z,1036.19
2017-01-19T12:16:30.303Z,1036.12
2017-01-19T12:17:39.277Z,1036.17
2017-01-19T12:18:48.259Z,1036.12
2017-01-19T12:19:57.231Z,1036.07
2017-01-19T12:21:06.212Z,1036.06
2017-01-19T12:22:15.196Z,1036.04
2017-01-19T12:23:24.175Z,1036.05
2017-01-19T12:24:33.156Z,1036.03
2017-01-19T12:25:42.125Z,1036.03
2017-01-19T12:26:51.093Z,1036
2017-01-19T12:28:00.061Z,1036.05
2017-01-19T12:29:09.047Z,1036.04
2017-01-19T12:30:18.018Z,1036.06
2017-01-19T12:31:26.994Z,1036.11
2017-01-19T12:32:35.969Z,1036.06
2017-01-19T12:33:44.946Z,1036.04
2017-01-19T12:34:53.913Z,1036
2017-01-19T12:36:02.906Z,1035.95
2017-01-19T12:37:11.890Z,1035.95
2017-01-19T12:38:20.872Z,1035.98
2017-01-19T12:39:29.851Z,1035.99
2017-01-19T12:40:38.816Z,1036
2017-01-19T12:41:47.786Z,1036
2017-01-19T12:42:56.776Z,1035.94
2017-01-19T12:44:05.754Z,1035.94
2017-01-19T12:45:14.727Z,1035.92
2017-01-19T12:46:23.705Z,1035.92
2017-01-19T12:47:32.673Z,1035.96
2017-01-19T12:48:41.670Z,1035.91
2017-01-19T12:49:50.639Z,1035.95
2017-01-19T12:50:59.622Z,1035.97
2017-01-19T12:52:08.587Z,1035.96
2017-01-19T12:53:17.555Z,1036.02
2017-01-19T12:54:26.525Z,1036.02
2017-01-19T12:55:35.501Z,1036.06
2017-01-19T12:56:44.467Z,1036.02
2017-01-19T12:57:53.453Z,1036.02
2017-01-19T12:59:02.434Z,1036.01
2017-01-19T13:00:11.419Z,1036.02
2017-01-19T13:01:20.796Z,1035.96
2017-01-19T13:02:29.769Z,1036
2017-01-19T13:03:38.747Z,1036.03
2017-01-19T13:04:47.738Z,1036.01
2017-01-19T13:05:56.702Z,1036.06
2017-01-19T13:07:05.663Z,1036.05
2017-01-19T13:08:14.645Z,1035.99
2017-01-19T13:09:23.627Z,1036.02
2017-01-19T13:10:32.591Z,1036.04
2017-01-19T13:11:41.558Z,1036.05
2017-01-19T13:12:50.536Z,1036.03
2017-01-19T13:13:59.508Z,1036.08
2017-01-19T13:15:08.484Z,1036.08
2017-01-19T13:16:17.490Z,1036.1
2017-01-19T13:17:26.463Z,1036.09
2017-01-19T13:18:35.441Z,1036.06
2017-01-19T13:19:44.400Z,1036.04
2017-01-19T13:20:53.792Z,1036.08
2017-01-19T13:22:02.772Z,1036.07
2017-01-19T13:23:11.757Z,1036.04
2017-01-19T13:24:20.727Z,1036.04
2017-01-19T13:25:29.702Z,1036.07
2017-01-19T13:26:38.673Z,1036.08
2017-01-19T13:27:47.642Z,1036.1
2017-01-19T13:28:56.621Z,1036.11
2017-01-19T13:30:05.597Z,1036.12
2017-01-19T13:31:14.565Z,1036.15
2017-01-19T13:32:23.546Z,1036.15
2017-01-19T13:33:32.512Z,1036.15
2017-01-19T13:34:41.490Z,1036.15
2017-01-19T13:35:50.459Z,1036.12
2017-01-19T13:36:59.444Z,1036.09
2017-01-19T13:38:08.413Z,1036.09
2017-01-19T13:39:17.397Z,1036.08
2017-01-19T13:40:26.789Z,1036.01
2017-01-19T13:41:35.771Z,1035.99
2017-01-19T13:42:44.762Z,1035.97
2017-01-19T13:43:53.768Z,1035.97
2017-01-19T13:45:02.737Z,1035.97
2017-01-19T13:46:11.710Z,1035.99
2017-01-19T13:47:20.691Z,1035.96
2017-01-19T13:48:29.667Z,1035.95
2017-01-19T13:49:38.693Z,1035.96
2017-01-19T13:50:47.705Z,1035.93
2017-01-19T13:51:56.672Z,1035.95
2017-01-19T13:53:05.649Z,1035.88
2017-01-19T13:54:14.630Z,1035.86
2017-01-19T13:55:23.693Z,1035.9
2017-01-19T13:56:33.528Z,1035.86
2017-01-19T13:57:42.774Z,1035.85